• Join FlightAware (Why Join?)
  • Login
  • US Flag 
10:47PM EST


 

Airport Tracker/Info


-or-


 

Live Flight TrackerFlight Track Log ✈ BVN8571 ✈ 02-Jul-2013 ✈ KOMA - KEAR

Flight Track Log - Related Links

Times and Time Zones

All times are in EDT time to prevent confusion due to time zone crossing. See the BVN8571 flight status page for this flight to view local times or setup timezone preferences in your user account.

Time Position Orientation Groundspeed Altitude Reporting Facility
EDT Latitude Longitude Course Direction KTS MPH feet Rate Location/Type
07:57AM 41.3061 -95.9017 324° Northwest 79 91 1,300  Level Minneapolis Center
07:58AM 41.3264 -95.9214 324° Northwest 95 109 1,900 600 Climbing Minneapolis Center
07:59AM 41.3453 -95.9553 307° West 116 133 2,600 660 Climbing Minneapolis Center
08:00AM 41.3397 -95.9978 260° West 125 144 3,300 660 Climbing Minneapolis Center
08:01AM 41.3314 -96.0347 253° West 120 138 4,000 720 Climbing Minneapolis Center
08:02AM 41.3203 -96.0858 254° West 122 140 4,800 780 Climbing Minneapolis Center
08:03AM 41.3108 -96.1342 255° West 129 148 5,600 660 Climbing Minneapolis Center
08:04AM 41.3031 -96.1767 256° West 124 143 6,200 600 Climbing Minneapolis Center
08:05AM 41.2931 -96.2194 253° West 127 146 6,800 600 Climbing Minneapolis Center
08:06AM 41.2836 -96.2675 255° West 130 150 7,500 540 Climbing Minneapolis Center
08:07AM 41.2742 -96.3186 256° West 143 165 8,000 240 Climbing Minneapolis Center
08:08AM 41.2614 -96.3781 254° West 174 200 8,000  Level Minneapolis Center
08:09AM 41.2506 -96.4403 257° West 170 196 8,000  Level Minneapolis Center
08:10AM 41.2375 -96.4997 254° West 168 193 8,000  Level Minneapolis Center
08:11AM 41.2242 -96.5594 253° West 167 192 8,000  Level Minneapolis Center
08:12AM 41.2150 -96.6131 257° West 166 191 8,000  Level Minneapolis Center
08:13AM 41.2039 -96.6722 256° West 166 191 8,000  Level Minneapolis Center
08:14AM 41.1886 -96.7347 252° West 167 192 8,000  Level Minneapolis Center
08:15AM 41.1775 -96.7942 256° West 168 193 8,000  Level Minneapolis Center
08:16AM 41.1625 -96.8592 253° West 167 192 8,000  Level Minneapolis Center
08:17AM 41.1514 -96.9183 256° West 166 191 8,000  Level Minneapolis Center
08:18AM 41.1492 -96.9903 268° West 166 191 8,000  Level Minneapolis Center
08:19AM 41.1378 -97.0489 256° West 165 190 8,000  Level Minneapolis Center
08:20AM 41.1272 -97.1081 257° West 165 190 8,000  Level Minneapolis Center
08:21AM 41.1142 -97.1667 254° West 166 191 8,000  Level Minneapolis Center
08:22AM 41.0989 -97.2369 254° West 165 190 8,000  Level Minneapolis Center
08:23AM 41.0864 -97.2956 254° West 165 190 8,000  Level Minneapolis Center
08:24AM 41.0769 -97.3544 258° West 164 189 8,000  Level Minneapolis Center
08:25AM 41.0636 -97.4150 254° West 165 190 8,000  Level Minneapolis Center
08:26AM 41.0517 -97.4742 255° West 166 191 8,000  Level Minneapolis Center
08:27AM 41.0414 -97.5200 253° West 164 189 8,000  Level Minneapolis Center
08:29AM 41.0283 -97.5914 256° West 166 191 8,000  Level Minneapolis Center
08:30AM 41.0161 -97.6492 254° West 164 189 8,000  Level Minneapolis Center
08:31AM 41.0036 -97.7069 254° West 164 189 8,000  Level Minneapolis Center
08:32AM 40.9900 -97.7778 256° West 165 190 8,100  Climbing Minneapolis Center
08:33AM 40.9781 -97.8372 255° West 167 192 8,100  Level Minneapolis Center
08:34AM 40.9653 -97.8950 254° West 164 189 8,100  Level Minneapolis Center
08:35AM 40.9531 -97.9536 255° West 165 190 8,100  Level Minneapolis Center
08:36AM 40.9383 -98.0244 255° West 166 191 8,100  Level Minneapolis Center
08:37AM 40.9289 -98.0714 255° West 165 190 8,100  Level Minneapolis Center
08:38AM 40.9136 -98.1411 254° West 165 190 8,100 -60 Level Minneapolis Center
08:39AM 40.9014 -98.2003 255° West 165 190 8,000 -60 Descending Minneapolis Center
08:40AM 40.8867 -98.2725 255° West 169 194 8,000  Level Minneapolis Center
08:41AM 40.8736 -98.3314 254° West 167 192 8,000 -300 Level Minneapolis Center
08:42AM 40.8606 -98.3911 254° West 167 192 7,500 -540 Descending Minneapolis Center
08:43AM 40.8456 -98.4572 253° West 179 206 6,900 -540 Descending Minneapolis Center
08:44AM 40.8328 -98.5217 255° West 182 209 6,400 -480 Descending Minneapolis Center
08:45AM 40.8189 -98.5856 254° West 181 208 6,000 -420 Descending Minneapolis Center
08:46AM 40.8050 -98.6483 254° West 179 206 5,600 -420 Descending Minneapolis Center
08:47AM 40.7917 -98.7122 255° West 179 206 5,200 -480 Descending Minneapolis Center
08:48AM 40.7783 -98.7756 254° West 179 206 4,700 -540 Descending Minneapolis Center
08:50AM 40.7564 -98.8460 248° West  Level FlightAware Approximate
08:57AM 40.7167 -99.0000 270° West  Level FlightAware Approximate